Time;durP1;ratioP1;P1;durP2;ratioP2;P2;SDS_P1;SDS_P2;PMS_P1;PMS_P2;Temp;Humidity;BMP_temperature;BMP_pressure;BME280_temperature;BME280_humidity;BME280_pressure;Samples;Min_cycle;Max_cycle;Signal;HPM_P1;HPM_P2
2022/07/02 00:05:09;;;;;;;3.37;1.63;;;;;14.20;101675.00;;;;10485351;28;20205;-79
2022/07/02 00:10:13;;;;;;;6.23;2.10;;;;;14.30;101674.00;;;;10493389;28;20264;-79
2022/07/02 00:15:16;;;;;;;4.23;1.90;;;;;14.50;101660.00;;;;10476398;28;20197;-79
2022/07/02 00:20:18;;;;;;;3.83;1.70;;;;;14.60;101661.00;;;;10509119;28;20246;-79
2022/07/02 00:25:21;;;;;;;4.80;1.70;;;;;14.60;101654.00;;;;10475827;28;20258;-79
2022/07/02 00:30:23;;;;;;;7.53;2.47;;;;;14.60;101652.00;;;;10475921;28;20790;-79
2022/07/02 00:35:26;;;;;;;5.00;1.73;;;;;14.60;101651.00;;;;10436678;28;20201;-79
2022/07/02 00:40:30;;;;;;;2.53;1.77;;;;;14.60;101654.00;;;;10466471;28;20223;-79
2022/07/02 00:45:35;;;;;;;3.00;2.10;;;;;14.60;101654.00;;;;10466734;28;20568;-79
2022/07/02 00:50:37;;;;;;;4.77;2.10;;;;;14.60;101648.00;;;;10464813;28;20210;-76
2022/07/02 00:55:39;;;;;;;3.30;2.13;;;;;14.60;101650.00;;;;10467802;28;20189;-76
2022/07/02 01:00:41;;;;;;;5.50;2.40;;;;;14.50;101656.00;;;;10488571;28;20300;-76
2022/07/02 01:05:45;;;;;;;3.17;2.40;;;;;14.50;101646.00;;;;10477137;28;20643;-76
2022/07/02 01:10:52;;;;;;;5.30;2.70;;;;;14.50;101650.00;;;;10463233;28;20189;-76
2022/07/02 01:15:54;;;;;;;6.37;2.50;;;;;14.60;101647.00;;;;10435535;28;20267;-75
2022/07/02 01:20:56;;;;;;;8.07;2.67;;;;;14.60;101641.00;;;;10405601;28;20190;-76
2022/07/02 01:25:58;;;;;;;6.37;2.53;;;;;14.60;101649.00;;;;10404492;28;20566;-76
2022/07/02 01:31:01;;;;;;;4.73;2.37;;;;;14.60;101653.00;;;;10423475;28;20289;-76
2022/07/02 01:36:03;;;;;;;4.80;2.37;;;;;14.70;101658.00;;;;10445945;28;20209;-76
2022/07/02 01:46:25;;;;;;;3.50;2.17;;;;;14.70;101654.00;;;;10425204;28;20210;-76
2022/07/02 01:51:27;;;;;;;3.93;1.90;;;;;14.60;101648.00;;;;10404314;28;20198;-75
2022/07/02 01:56:33;;;;;;;3.73;2.00;;;;;14.60;101664.00;;;;10420892;28;20193;-76
2022/07/02 02:01:35;;;;;;;5.57;1.80;;;;;14.50;101657.00;;;;10427281;28;20205;-76
2022/07/02 02:06:38;;;;;;;3.87;2.23;;;;;14.50;101660.00;;;;10460835;28;20216;-76
2022/07/02 02:11:40;;;;;;;3.33;1.90;;;;;14.50;101662.00;;;;10444825;28;20197;-75
2022/07/02 02:16:42;;;;;;;1.97;1.57;;;;;14.40;101650.00;;;;10495219;28;20243;-76
2022/07/02 02:21:45;;;;;;;4.90;1.73;;;;;14.40;101656.00;;;;10469245;28;20193;-75
2022/07/02 02:26:46;;;;;;;4.83;1.93;;;;;14.40;101652.00;;;;10502091;28;20204;-76
2022/07/02 02:31:48;;;;;;;5.80;2.00;;;;;14.30;101653.00;;;;10469102;28;20204;-76
2022/07/02 02:36:50;;;;;;;7.57;1.97;;;;;14.20;101654.00;;;;10469088;28;20185;-77
2022/07/02 02:41:55;;;;;;;3.67;1.40;;;;;14.00;101641.00;;;;10502344;28;20243;-77
2022/07/02 02:46:57;;;;;;;5.47;1.80;;;;;14.00;101650.00;;;;10501853;28;20749;-77
2022/07/02 02:51:59;;;;;;;5.00;1.90;;;;;13.90;101658.00;;;;10502244;28;20283;-77
2022/07/02 02:57:01;;;;;;;2.77;1.47;;;;;13.80;101649.00;;;;10518637;28;20173;-76
2022/07/02 03:02:03;;;;;;;4.57;1.70;;;;;13.60;101648.00;;;;10501335;28;20203;-76
2022/07/02 03:07:05;;;;;;;3.73;1.60;;;;;13.40;101655.00;;;;10468476;28;20917;-76
2022/07/02 03:12:08;;;;;;;3.93;1.60;;;;;13.30;101659.00;;;;10484770;28;20189;-77
2022/07/02 03:17:10;;;;;;;4.00;1.67;;;;;13.10;101653.00;;;;10521299;28;20193;-77
2022/07/02 03:22:12;;;;;;;3.40;1.53;;;;;13.00;101655.00;;;;10492700;28;20193;-76
2022/07/02 03:27:14;;;;;;;5.20;1.50;;;;;12.90;101662.00;;;;10525456;28;20204;-77
2022/07/02 03:32:17;;;;;;;2.80;1.60;;;;;12.70;101669.00;;;;10475925;28;20212;-77
2022/07/02 03:37:21;;;;;;;4.70;1.50;;;;;12.60;101665.00;;;;10509467;28;20639;-76
2022/07/02 03:42:23;;;;;;;2.40;1.70;;;;;12.60;101677.00;;;;10492256;28;20189;-76
2022/07/02 03:47:25;;;;;;;5.03;2.20;;;;;12.70;101675.00;;;;10508491;28;20211;-77
2022/07/02 03:52:28;;;;;;;3.97;1.50;;;;;12.80;101681.00;;;;10508247;28;20244;-77
2022/07/02 03:57:30;;;;;;;4.53;1.90;;;;;13.00;101678.00;;;;10491179;28;20278;-77
2022/07/02 04:02:32;;;;;;;4.90;1.53;;;;;13.20;101678.00;;;;10489223;28;20199;-76
2022/07/02 04:07:35;;;;;;;3.10;1.60;;;;;13.40;101672.00;;;;10507280;28;20209;-77
2022/07/02 04:12:37;;;;;;;4.30;1.50;;;;;13.70;101681.00;;;;10489882;28;20201;-76
2022/07/02 04:17:39;;;;;;;3.87;1.33;;;;;14.00;101682.00;;;;10506720;28;20863;-76
2022/07/02 04:22:40;;;;;;;5.23;1.60;;;;;14.30;101693.00;;;;10489812;28;20200;-76
2022/07/02 04:27:42;;;;;;;2.40;1.30;;;;;14.50;101694.00;;;;10489814;28;20215;-76
2022/07/02 04:32:44;;;;;;;4.23;1.60;;;;;14.90;101693.00;;;;10489236;28;20240;-76
2022/07/02 04:37:47;;;;;;;6.07;1.63;;;;;14.90;101687.00;;;;10432119;28;20615;-77
2022/07/02 04:42:49;;;;;;;4.17;1.20;;;;;14.90;101682.00;;;;10431853;28;20718;-77
2022/07/02 04:47:51;;;;;;;4.10;1.67;;;;;15.00;101692.00;;;;10447774;28;20281;-77
2022/07/02 04:52:53;;;;;;;2.33;1.40;;;;;15.00;101688.00;;;;10464264;28;20190;-76
2022/07/02 04:57:54;;;;;;;3.50;1.60;;;;;14.90;101696.00;;;;10455910;28;20220;-77
2022/07/02 05:02:56;;;;;;;4.53;2.03;;;;;15.30;101686.00;;;;10487537;28;20204;-77
2022/07/02 05:07:59;;;;;;;5.60;1.50;;;;;15.70;101675.00;;;;10521532;28;20235;-77
2022/07/02 05:13:01;;;;;;;2.73;1.30;;;;;16.20;101679.00;;;;10471744;28;20205;-76
2022/07/02 05:18:03;;;;;;;3.63;1.42;;;;;16.70;101684.00;;;;10496419;28;20197;-77
2022/07/02 05:23:05;;;;;;;8.02;1.50;;;;;17.20;101685.00;;;;10430031;28;20205;-76
2022/07/02 05:28:07;;;;;;;4.85;1.23;;;;;17.50;101684.00;;;;10445795;28;20383;-77
2022/07/02 05:33:09;;;;;;;2.65;1.63;;;;;17.90;101680.00;;;;10465635;28;20297;-77
2022/07/02 05:38:10;;;;;;;8.95;2.28;;;;;18.40;101680.00;;;;10485380;28;20189;-77
2022/07/02 05:43:13;;;;;;;4.75;1.77;;;;;19.00;101686.00;;;;10487175;28;20192;-77
2022/07/02 05:48:15;;;;;;;3.03;1.40;;;;;19.60;101690.00;;;;10486900;28;20267;-75
2022/07/02 05:53:17;;;;;;;5.13;2.20;;;;;20.00;101679.00;;;;10470991;28;20250;-77
2022/07/02 05:58:19;;;;;;;4.38;1.30;;;;;20.30;101682.00;;;;10486407;28;20227;-75
2022/07/02 06:03:21;;;;;;;4.80;1.30;;;;;20.70;101687.00;;;;10486645;28;20598;-75
2022/07/02 06:08:23;;;;;;;3.08;0.98;;;;;21.10;101681.00;;;;10469747;28;20299;-76
2022/07/02 06:13:25;;;;;;;4.95;1.25;;;;;21.50;101686.00;;;;10496072;28;20193;-76
2022/07/02 06:18:27;;;;;;;6.43;1.58;;;;;21.80;101677.00;;;;10461141;28;20209;-76
2022/07/02 06:23:30;;;;;;;4.15;1.20;;;;;22.10;101680.00;;;;10444731;28;20186;-75
2022/07/02 06:28:31;;;;;;;2.35;0.68;;;;;22.40;101678.00;;;;10428313;28;20220;-76
2022/07/02 06:33:33;;;;;;;1.10;0.82;;;;;22.60;101684.00;;;;10444561;28;20251;-76
2022/07/02 06:38:37;;;;;;;1.48;0.65;;;;;22.80;101678.00;;;;10460928;28;20212;-75
2022/07/02 06:43:39;;;;;;;3.20;0.80;;;;;23.20;101678.00;;;;10460994;28;20201;-76
2022/07/02 06:48:41;;;;;;;1.75;0.50;;;;;23.60;101678.00;;;;10427883;28;20245;-75
2022/07/02 06:53:43;;;;;;;1.42;0.70;;;;;23.60;101669.00;;;;10435503;28;20197;-76
2022/07/02 06:58:46;;;;;;;3.13;0.60;;;;;23.70;101673.00;;;;10485587;28;20206;-76
2022/07/02 07:03:48;;;;;;;1.67;0.70;;;;;23.90;101664.00;;;;10444191;28;20194;-76
2022/07/02 07:08:52;;;;;;;1.30;0.60;;;;;24.00;101670.00;;;;10411253;28;20218;-76
2022/07/02 07:13:54;;;;;;;1.70;0.90;;;;;24.30;101677.00;;;;10437820;28;20205;-76
2022/07/02 07:19:00;;;;;;;2.08;0.90;;;;;24.70;101674.00;;;;10467965;28;20280;-76
2022/07/02 07:24:02;;;;;;;2.22;1.05;;;;;25.20;101678.00;;;;10451094;28;20255;-76
2022/07/02 07:29:08;;;;;;;3.55;0.90;;;;;25.50;101666.00;;;;10468514;28;20208;-76
2022/07/02 07:34:11;;;;;;;2.83;1.00;;;;;25.60;101663.00;;;;10538620;28;20366;-76
2022/07/02 07:39:13;;;;;;;3.35;1.52;;;;;25.70;101657.00;;;;10551189;28;20196;-76
2022/07/02 07:44:15;;;;;;;3.95;1.25;;;;;26.10;101664.00;;;;10517908;28;20228;-76
2022/07/02 07:49:17;;;;;;;2.42;0.95;;;;;26.30;101660.00;;;;10551433;28;20260;-76
2022/07/02 07:54:19;;;;;;;4.05;1.10;;;;;26.40;101661.00;;;;10533324;28;20257;-76
2022/07/02 07:59:21;;;;;;;2.70;1.00;;;;;26.80;101670.00;;;;10513621;28;20212;-76
2022/07/02 08:04:24;;;;;;;4.45;1.48;;;;;27.00;101675.00;;;;10454009;28;20252;-76
2022/07/02 08:09:26;;;;;;;3.13;1.70;;;;;27.50;101669.00;;;;10466894;28;20209;-76
2022/07/02 08:14:28;;;;;;;3.85;1.42;;;;;27.80;101676.00;;;;10466023;28;20611;-76
2022/07/02 08:19:30;;;;;;;3.28;1.42;;;;;27.60;101670.00;;;;10466730;28;20217;-76
2022/07/02 08:24:32;;;;;;;4.00;1.38;;;;;28.10;101673.00;;;;10482800;28;20513;-76
2022/07/02 08:29:34;;;;;;;3.17;1.30;;;;;28.50;101660.00;;;;10465718;28;20200;-76
2022/07/02 08:34:36;;;;;;;3.63;1.33;;;;;28.60;101664.00;;;;10499981;28;20280;-76
2022/07/02 08:39:39;;;;;;;5.00;1.55;;;;;28.90;101658.00;;;;10490470;28;20493;-76
2022/07/02 08:44:48;;;;;;;4.55;1.38;;;;;29.20;101651.00;;;;10507949;28;20196;-76
2022/07/02 08:49:55;;;;;;;4.22;1.65;;;;;29.40;101650.00;;;;10506268;28;20216;-76
2022/07/02 08:54:57;;;;;;;4.20;1.52;;;;;29.60;101632.00;;;;10489096;28;20189;-76
2022/07/02 08:59:59;;;;;;;4.00;1.40;;;;;29.70;101629.00;;;;10472968;28;20213;-76
2022/07/02 09:05:03;;;;;;;6.13;1.27;;;;;29.90;101631.00;;;;10503531;28;20292;-76
2022/07/02 09:10:06;;;;;;;2.80;1.00;;;;;30.40;101620.00;;;;10488820;28;20219;-76
2022/07/02 09:15:10;;;;;;;2.83;1.30;;;;;30.30;101606.00;;;;10520343;28;20193;-76
2022/07/02 09:20:12;;;;;;;1.85;1.05;;;;;30.90;101612.00;;;;10505302;28;20193;-76
2022/07/02 09:25:24;;;;;;;3.05;1.30;;;;;31.10;101617.00;;;;10472120;28;20205;-76
2022/07/02 09:30:29;;;;;;;2.53;1.00;;;;;29.50;101589.00;;;;10517695;28;20205;-76
2022/07/02 09:35:31;;;;;;;1.95;1.10;;;;;30.80;101581.00;;;;10446616;28;20229;-76
2022/07/02 09:40:34;;;;;;;2.55;1.08;;;;;30.00;101592.00;;;;10463027;28;20190;-76
2022/07/02 09:45:36;;;;;;;2.63;1.15;;;;;30.00;101591.00;;;;10463256;28;20244;-76
2022/07/02 09:50:39;;;;;;;1.55;1.13;;;;;29.00;101591.00;;;;10463000;28;20601;-76
2022/07/02 09:55:48;;;;;;;1.52;0.77;;;;;28.00;101585.00;;;;10469116;28;20283;-76
2022/07/02 10:00:51;;;;;;;3.92;1.05;;;;;27.50;101582.00;;;;10470834;28;20216;-76
2022/07/02 10:05:54;;;;;;;1.35;0.93;;;;;28.20;101580.00;;;;10503157;28;20246;-76
2022/07/02 10:10:56;;;;;;;2.25;0.95;;;;;29.20;101567.00;;;;10455022;28;20280;-76
2022/07/02 10:16:02;;;;;;;2.92;0.73;;;;;29.90;101578.00;;;;10444255;28;20743;-76
2022/07/02 10:21:04;;;;;;;1.33;0.70;;;;;31.60;101576.00;;;;10461086;28;20193;-76
2022/07/02 10:26:06;;;;;;;2.00;0.70;;;;;32.60;101565.00;;;;10477119;28;20209;-76
2022/07/02 10:31:16;;;;;;;2.90;0.70;;;;;32.80;101570.00;;;;10481135;28;20276;-76
2022/07/02 10:36:19;;;;;;;3.40;0.75;;;;;31.50;101565.00;;;;10502630;28;20181;-76
2022/07/02 10:41:29;;;;;;;2.75;1.08;;;;;31.20;101561.00;;;;10537062;28;20184;-76
2022/07/02 10:46:35;;;;;;;1.08;0.70;;;;;32.00;101552.00;;;;10502203;28;20244;-76
2022/07/02 10:51:38;;;;;;;1.80;0.80;;;;;30.90;101552.00;;;;10469842;28;20200;-76
2022/07/02 10:56:46;;;;;;;2.45;0.77;;;;;30.60;101550.00;;;;10485635;28;20189;-76
2022/07/02 11:02:03;;;;;;;1.83;0.80;;;;;31.30;101556.00;;;;10468976;28;20192;-76
2022/07/02 11:07:09;;;;;;;3.50;0.63;;;;;31.70;101550.00;;;;10502126;28;20727;-76
2022/07/02 11:12:12;;;;;;;1.08;0.68;;;;;31.90;101545.00;;;;10485565;28;20272;-76
2022/07/02 11:17:18;;;;;;;1.23;0.60;;;;;32.60;101542.00;;;;10501953;28;20185;-76
2022/07/02 11:22:21;;;;;;;1.45;0.88;;;;;33.20;101544.00;;;;10501754;28;20193;-76
2022/07/02 11:27:23;;;;;;;2.50;0.77;;;;;32.50;101524.00;;;;10481301;28;20206;-76
2022/07/02 11:32:35;;;;;;;2.05;0.80;;;;;34.40;101525.00;;;;10474452;28;20215;-76
2022/07/02 11:37:37;;;;;;;1.77;0.68;;;;;35.20;101514.00;;;;10486940;28;20185;-76
2022/07/02 11:42:39;;;;;;;2.45;0.68;;;;;33.90;101520.00;;;;10525856;28;20204;-76
2022/07/02 11:47:49;;;;;;;5.25;0.70;;;;;33.90;101499.00;;;;10508442;28;20274;-76
2022/07/02 11:52:52;;;;;;;1.85;0.68;;;;;35.30;101513.00;;;;10508531;28;20184;-76
2022/07/02 11:57:53;;;;;;;0.68;0.45;;;;;33.00;101489.00;;;;10508414;28;20674;-76
2022/07/02 12:02:55;;;;;;;2.20;0.63;;;;;34.70;101492.00;;;;10491684;28;20201;-76
2022/07/02 12:07:57;;;;;;;2.67;0.60;;;;;33.50;101494.00;;;;10491588;28;20395;-76
2022/07/02 12:13:07;;;;;;;2.25;0.50;;;;;34.50;101493.00;;;;10491111;28;20181;-76
2022/07/02 12:18:19;;;;;;;1.90;0.70;;;;;33.40;101476.00;;;;10490604;28;20219;-76
2022/07/02 12:23:21;;;;;;;1.55;0.60;;;;;35.00;101481.00;;;;10524221;28;20602;-76
2022/07/02 12:33:43;;;;;;;1.00;0.60;;;;;34.50;101475.00;;;;10492906;28;20259;-76
2022/07/02 12:38:45;;;;;;;1.45;0.40;;;;;33.10;101466.00;;;;10464970;28;20202;-76
2022/07/02 12:43:54;;;;;;;1.20;0.50;;;;;31.70;101468.00;;;;10498124;28;20666;-76
2022/07/02 12:48:56;;;;;;;8.65;1.10;;;;;32.30;101454.00;;;;10464077;28;20595;-76
2022/07/02 12:53:58;;;;;;;0.95;0.60;;;;;33.50;101453.00;;;;10497252;28;20181;-76
2022/07/02 12:59:00;;;;;;;1.13;0.50;;;;;32.40;101450.00;;;;10514991;28;20288;-76
2022/07/02 13:04:02;;;;;;;3.67;0.70;;;;;32.60;101446.00;;;;10521968;28;20594;-75
2022/07/02 13:09:04;;;;;;;1.80;0.50;;;;;33.60;101449.00;;;;10488990;28;20193;-76
2022/07/02 13:14:06;;;;;;;1.60;0.65;;;;;34.10;101442.00;;;;10488321;28;20204;-76
2022/07/02 13:19:08;;;;;;;2.42;1.05;;;;;32.30;101449.00;;;;10504694;28;20215;-76
2022/07/02 13:24:10;;;;;;;1.27;0.60;;;;;32.50;101441.00;;;;10504652;28;20185;-76
2022/07/02 13:29:12;;;;;;;0.82;0.47;;;;;33.40;101439.00;;;;10487842;28;20235;-76
2022/07/02 13:34:14;;;;;;;1.20;0.60;;;;;32.50;101445.00;;;;10474969;28;20198;-76
2022/07/02 13:39:16;;;;;;;0.70;0.70;;;;;31.80;101425.00;;;;10462398;28;20228;-76
2022/07/02 13:44:18;;;;;;;1.45;0.63;;;;;32.90;101421.00;;;;10461990;28;20253;-76
2022/07/02 13:49:21;;;;;;;1.60;0.60;;;;;33.00;101414.00;;;;10462473;28;20189;-76
2022/07/02 13:54:22;;;;;;;1.85;0.60;;;;;31.90;101408.00;;;;10478643;28;20182;-76
2022/07/02 13:59:24;;;;;;;1.52;0.57;;;;;32.00;101401.00;;;;10461343;28;20227;-76
2022/07/02 14:04:27;;;;;;;0.85;0.60;;;;;33.20;101404.00;;;;10492992;28;20193;-76
2022/07/02 14:09:31;;;;;;;1.15;0.60;;;;;31.80;101391.00;;;;10470009;28;20192;-76
2022/07/02 14:14:33;;;;;;;2.90;0.57;;;;;34.00;101390.00;;;;10486685;28;20203;-76
2022/07/02 14:19:35;;;;;;;1.40;0.63;;;;;35.60;101387.00;;;;10519433;28;20196;-76
2022/07/02 14:24:38;;;;;;;2.63;0.75;;;;;37.50;101380.00;;;;10486451;28;20181;-76
2022/07/02 14:29:40;;;;;;;1.52;0.60;;;;;38.20;101393.00;;;;10502882;28;20185;-76
2022/07/02 14:34:42;;;;;;;1.35;0.60;;;;;39.80;101402.00;;;;10461194;28;20201;-76
2022/07/02 14:39:45;;;;;;;1.17;0.47;;;;;34.70;101385.00;;;;10477491;28;20213;-76
2022/07/02 14:44:47;;;;;;;2.17;0.70;;;;;39.60;101377.00;;;;10460908;28;20185;-76
2022/07/02 14:49:49;;;;;;;2.30;0.82;;;;;37.60;101380.00;;;;10494332;28;20194;-76
2022/07/02 14:54:51;;;;;;;2.42;0.80;;;;;33.30;101396.00;;;;10460682;28;20285;-76
2022/07/02 14:59:53;;;;;;;4.28;0.70;;;;;32.60;101397.00;;;;10485322;28;20274;-75
2022/07/02 15:05:04;;;;;;;1.48;0.70;;;;;36.20;101373.00;;;;10518461;28;20231;-76
2022/07/02 15:10:08;;;;;;;3.35;0.70;;;;;35.90;101382.00;;;;10485122;28;20197;-76
2022/07/02 15:20:42;;;;;;;1.17;0.60;;;;;35.90;101375.00;;;;10492897;28;20379;-76
2022/07/02 15:25:44;;;;;;;1.65;0.60;;;;;33.70;101376.00;;;;10476002;28;20189;-76
2022/07/02 15:30:54;;;;;;;2.25;0.88;;;;;31.20;101368.00;;;;10492876;28;20189;-76
2022/07/02 15:35:56;;;;;;;2.97;0.90;;;;;30.80;101351.00;;;;10509441;28;20296;-76
2022/07/02 15:40:59;;;;;;;0.90;0.57;;;;;32.40;101337.00;;;;10508963;28;20185;-75
2022/07/02 15:46:02;;;;;;;0.70;0.50;;;;;33.30;101336.00;;;;10508377;28;20306;-76
2022/07/02 15:51:12;;;;;;;1.38;0.70;;;;;33.60;101334.00;;;;10491537;28;20205;-76
2022/07/02 15:56:17;;;;;;;1.35;0.70;;;;;34.20;101340.00;;;;10491321;28;20572;-76
2022/07/02 16:01:20;;;;;;;2.72;0.90;;;;;31.30;101327.00;;;;10502725;28;20787;-76
2022/07/02 16:06:23;;;;;;;1.38;0.63;;;;;30.10;101313.00;;;;10466255;28;20186;-76
2022/07/02 16:11:25;;;;;;;2.42;0.80;;;;;29.40;101316.00;;;;10482436;28;20189;-76
2022/07/02 16:16:29;;;;;;;1.50;0.60;;;;;29.30;101316.00;;;;10465575;28;20288;-76
2022/07/02 16:21:32;;;;;;;0.63;0.50;;;;;28.90;101315.00;;;;10449305;28;20694;-76
2022/07/02 16:26:34;;;;;;;3.17;0.65;;;;;28.40;101313.00;;;;10466268;28;20186;-76
2022/07/02 16:31:49;;;;;;;3.40;0.70;;;;;28.20;101302.00;;;;10489553;28;20297;-76
2022/07/02 16:36:58;;;;;;;0.75;0.50;;;;;28.20;101297.00;;;;10489611;28;20208;-76
2022/07/02 16:42:00;;;;;;;2.28;0.52;;;;;27.90;101297.00;;;;10506746;28;20258;-75
2022/07/02 16:47:03;;;;;;;2.10;0.50;;;;;27.50;101286.00;;;;10523055;28;20298;-76
2022/07/02 16:52:08;;;;;;;2.00;0.50;;;;;26.70;101287.00;;;;10506518;28;20193;-76
2022/07/02 16:57:12;;;;;;;5.10;0.73;;;;;26.30;101289.00;;;;10489800;28;20300;-76
2022/07/02 17:02:22;;;;;;;1.52;0.63;;;;;26.00;101292.00;;;;10493417;28;20295;-76
2022/07/02 17:07:26;;;;;;;0.70;0.50;;;;;25.90;101285.00;;;;10464050;28;20235;-76
2022/07/02 17:12:28;;;;;;;1.27;0.70;;;;;25.70;101275.00;;;;10480500;28;20188;-76
2022/07/02 17:17:30;;;;;;;3.88;1.00;;;;;25.50;101281.00;;;;10496913;28;20300;-76
2022/07/02 17:22:32;;;;;;;2.08;0.90;;;;;25.30;101275.00;;;;10480210;28;20648;-76
2022/07/02 17:27:34;;;;;;;1.70;0.60;;;;;25.10;101276.00;;;;10447089;28;20186;-76
2022/07/02 17:32:36;;;;;;;1.60;0.90;;;;;24.80;101275.00;;;;10495520;28;20717;-76
2022/07/02 17:37:38;;;;;;;1.10;0.70;;;;;24.50;101273.00;;;;10503856;28;20208;-76
2022/07/02 17:42:40;;;;;;;2.20;0.63;;;;;24.60;101265.00;;;;10504141;28;20196;-75
2022/07/02 17:47:42;;;;;;;2.00;0.52;;;;;25.00;101265.00;;;;10487017;28;20181;-75
2022/07/02 17:52:47;;;;;;;0.90;0.68;;;;;25.30;101262.00;;;;10488570;28;20197;-76
2022/07/02 17:57:50;;;;;;;1.50;0.70;;;;;25.20;101252.00;;;;10503872;28;20223;-76
2022/07/02 18:02:51;;;;;;;1.50;0.77;;;;;24.80;101257.00;;;;10470296;28;20254;-76
2022/07/02 18:07:54;;;;;;;3.20;1.23;;;;;24.50;101247.00;;;;10486693;28;20638;-76
2022/07/02 18:12:57;;;;;;;1.73;0.60;;;;;24.20;101240.00;;;;10503358;28;20525;-76
2022/07/02 18:17:59;;;;;;;2.35;0.70;;;;;24.00;101235.00;;;;10486710;28;20303;-76
2022/07/02 18:23:01;;;;;;;1.38;0.80;;;;;24.10;101232.00;;;;10503150;28;20193;-76
2022/07/02 18:28:04;;;;;;;3.33;0.75;;;;;24.20;101231.00;;;;10503504;28;20578;-76
2022/07/02 18:33:07;;;;;;;2.30;0.80;;;;;24.30;101225.00;;;;10466033;28;20228;-76
2022/07/02 18:38:09;;;;;;;1.58;0.70;;;;;24.40;101216.00;;;;10460962;28;20683;-76
2022/07/02 18:43:12;;;;;;;5.03;1.05;;;;;24.40;101223.00;;;;10444306;28;20197;-76
2022/07/02 18:48:14;;;;;;;5.95;0.93;;;;;24.10;101225.00;;;;10449345;28;20216;-76
2022/07/02 18:53:16;;;;;;;2.80;0.75;;;;;23.70;101221.00;;;;10469789;28;20186;-76
2022/07/02 18:58:18;;;;;;;3.72;1.40;;;;;23.40;101225.00;;;;10498674;28;20232;-76
2022/07/02 19:03:20;;;;;;;2.55;1.20;;;;;23.00;101222.00;;;;10477636;28;20693;-76
2022/07/02 19:08:23;;;;;;;2.53;1.30;;;;;22.70;101228.00;;;;10493402;28;20196;-76
2022/07/02 19:13:26;;;;;;;2.45;1.48;;;;;22.40;101219.00;;;;10476827;28;20716;-75
2022/07/02 19:18:28;;;;;;;1.45;0.90;;;;;22.10;101237.00;;;;10493229;28;20219;-75
2022/07/02 19:23:30;;;;;;;3.85;1.48;;;;;21.80;101229.00;;;;10493076;28;20189;-75
2022/07/02 19:33:52;;;;;;;5.68;1.17;;;;;21.30;101225.00;;;;10494108;28;20200;-75
2022/07/02 19:38:55;;;;;;;2.00;1.10;;;;;21.20;101224.00;;;;10491950;28;20575;-75
2022/07/02 19:43:58;;;;;;;2.10;0.98;;;;;21.00;101236.00;;;;10509539;28;20192;-75
2022/07/02 19:49:03;;;;;;;1.75;1.30;;;;;20.80;101227.00;;;;10509103;28;20205;-76
2022/07/02 19:54:05;;;;;;;2.22;1.10;;;;;20.50;101232.00;;;;10491918;28;20622;-75
2022/07/02 19:59:07;;;;;;;4.38;1.55;;;;;20.30;101231.00;;;;10523906;28;20223;-75
2022/07/02 20:04:13;;;;;;;3.17;1.75;;;;;20.10;101242.00;;;;10462621;28;20205;-75
2022/07/02 20:09:15;;;;;;;2.35;1.52;;;;;19.90;101240.00;;;;10449649;28;20264;-76
2022/07/02 20:14:17;;;;;;;2.63;1.60;;;;;19.70;101238.00;;;;10465838;28;20259;-75
2022/07/02 20:19:19;;;;;;;3.88;2.30;;;;;19.60;101239.00;;;;10459969;28;20687;-76
2022/07/02 20:24:25;;;;;;;4.30;1.70;;;;;19.40;101249.00;;;;10482290;28;20220;-75
2022/07/02 20:29:27;;;;;;;1.75;1.50;;;;;19.30;101243.00;;;;10448853;28;20259;-75
2022/07/02 20:34:29;;;;;;;1.95;1.70;;;;;19.20;101237.00;;;;10465118;28;20197;-75
2022/07/02 20:39:31;;;;;;;3.35;1.55;;;;;19.10;101243.00;;;;10464513;28;20264;-75
2022/07/02 20:44:34;;;;;;;4.18;1.48;;;;;18.90;101247.00;;;;10465665;28;20196;-76
2022/07/02 20:49:36;;;;;;;3.42;1.35;;;;;18.80;101244.00;;;;10481214;28;20190;-75
2022/07/02 20:54:38;;;;;;;2.38;1.00;;;;;18.60;101248.00;;;;10464638;28;20209;-75
2022/07/02 20:59:40;;;;;;;2.08;1.05;;;;;18.50;101243.00;;;;10521750;28;20212;-75
2022/07/02 21:04:43;;;;;;;2.75;1.30;;;;;18.40;101234.00;;;;10447607;28;20208;-75
2022/07/02 21:09:45;;;;;;;9.80;1.83;;;;;18.40;101240.00;;;;10480081;28;20687;-75
2022/07/02 21:14:48;;;;;;;2.40;1.10;;;;;18.30;101233.00;;;;10479855;28;20236;-75
2022/07/02 21:19:51;;;;;;;2.80;1.25;;;;;18.20;101244.00;;;;10446605;28;20219;-75
2022/07/02 21:24:54;;;;;;;4.25;2.53;;;;;18.20;101247.00;;;;10463571;28;20193;-75
2022/07/02 21:29:56;;;;;;;3.42;1.90;;;;;18.00;101250.00;;;;10463201;28;20213;-76
2022/07/02 21:34:58;;;;;;;5.40;2.53;;;;;17.90;101262.00;;;;10479273;28;20229;-75
2022/07/02 21:40:00;;;;;;;10.82;4.13;;;;;17.80;101269.00;;;;10479110;28;20209;-76
2022/07/02 21:45:01;;;;;;;5.35;2.47;;;;;17.80;101272.00;;;;10462347;28;20186;-75
2022/07/02 21:50:03;;;;;;;5.68;2.42;;;;;17.80;101268.00;;;;10429574;28;20230;-76
2022/07/02 21:55:06;;;;;;;6.90;2.47;;;;;17.80;101278.00;;;;10465276;28;20177;-76
2022/07/02 22:00:10;;;;;;;6.22;1.88;;;;;17.80;101261.00;;;;10488262;28;20703;-76
2022/07/02 22:05:12;;;;;;;5.05;2.50;;;;;17.70;101248.00;;;;10486297;28;20201;-78
2022/07/02 22:10:15;;;;;;;9.23;2.80;;;;;17.60;101249.00;;;;10487265;28;20185;-77
2022/07/02 22:15:17;;;;;;;5.82;2.53;;;;;17.50;101244.00;;;;10487430;28;20670;-75
2022/07/02 22:25:41;;;;;;;5.18;2.40;;;;;17.30;101249.00;;;;10487502;28;20212;-77
2022/07/02 22:30:43;;;;;;;4.85;2.15;;;;;17.20;101256.00;;;;10503423;28;20761;-75
2022/07/02 22:35:47;;;;;;;6.22;2.08;;;;;17.00;101257.00;;;;10444902;28;20181;-76
2022/07/02 22:40:50;;;;;;;6.40;2.35;;;;;16.90;101253.00;;;;10461664;28;20232;-76
2022/07/02 22:45:52;;;;;;;2.90;2.30;;;;;16.80;101264.00;;;;10479019;28;20552;-77
2022/07/02 22:50:54;;;;;;;4.00;2.10;;;;;16.80;101271.00;;;;10445641;28;20182;-77
2022/07/02 22:55:56;;;;;;;4.53;2.50;;;;;16.80;101284.00;;;;10488042;28;20288;-77
2022/07/02 23:00:59;;;;;;;2.25;2.05;;;;;16.70;101287.00;;;;10501511;28;20259;-77
2022/07/02 23:06:01;;;;;;;3.57;2.40;;;;;16.60;101295.00;;;;10461759;28;20232;-77
2022/07/02 23:11:04;;;;;;;2.07;1.73;;;;;16.50;101298.00;;;;10463619;28;20194;-76
2022/07/02 23:16:07;;;;;;;6.53;1.90;;;;;16.50;101295.00;;;;10485375;28;20232;-76
2022/07/02 23:21:09;;;;;;;2.08;1.88;;;;;16.40;101298.00;;;;10501856;28;20209;-77
2022/07/02 23:26:11;;;;;;;2.83;1.83;;;;;16.30;101298.00;;;;10470287;28;20193;-77
2022/07/02 23:31:13;;;;;;;4.57;1.90;;;;;16.30;101310.00;;;;10502339;28;20197;-77
2022/07/02 23:36:18;;;;;;;5.80;1.93;;;;;16.20;101314.00;;;;10492378;28;20718;-76
2022/07/02 23:41:20;;;;;;;2.70;1.77;;;;;16.10;101318.00;;;;10494437;28;20220;-76
2022/07/02 23:46:22;;;;;;;2.67;2.03;;;;;16.10;101325.00;;;;10477614;28;20197;-77
2022/07/02 23:51:24;;;;;;;6.90;1.90;;;;;16.00;101337.00;;;;10526703;28;20184;-77
2022/07/02 23:56:30;;;;;;;4.47;1.97;;;;;15.90;101333.00;;;;10484409;28;20190;-76
